sensor_id;sensor_type;location;lat;lon;timestamp;P1;durP1;ratioP1;P2;durP2;ratioP2
30243;SDS011;64022;53.652;9.792;2022-11-03T00:02:23;42.13;;;24.37;;
30243;SDS011;64022;53.652;9.792;2022-11-03T00:04:49;41.10;;;22.17;;
30243;SDS011;64022;53.652;9.792;2022-11-03T00:07:20;44.37;;;22.93;;
30243;SDS011;64022;53.652;9.792;2022-11-03T00:09:46;40.35;;;21.73;;
30243;SDS011;64022;53.652;9.792;2022-11-03T00:12:12;43.10;;;22.13;;
30243;SDS011;64022;53.652;9.792;2022-11-03T00:14:38;45.37;;;23.57;;
30243;SDS011;64022;53.652;9.792;2022-11-03T00:17:03;39.60;;;22.57;;
30243;SDS011;64022;53.652;9.792;2022-11-03T00:19:29;40.90;;;22.43;;
30243;SDS011;64022;53.652;9.792;2022-11-03T00:21:54;36.10;;;21.63;;
30243;SDS011;64022;53.652;9.792;2022-11-03T00:24:22;37.15;;;20.48;;
30243;SDS011;64022;53.652;9.792;2022-11-03T00:26:48;42.93;;;22.43;;
30243;SDS011;64022;53.652;9.792;2022-11-03T00:29:13;39.17;;;20.50;;
30243;SDS011;64022;53.652;9.792;2022-11-03T00:31:40;35.93;;;20.63;;
30243;SDS011;64022;53.652;9.792;2022-11-03T00:34:08;40.50;;;20.83;;
30243;SDS011;64022;53.652;9.792;2022-11-03T00:36:35;37.90;;;20.67;;
30243;SDS011;64022;53.652;9.792;2022-11-03T00:39:03;35.58;;;19.38;;
30243;SDS011;64022;53.652;9.792;2022-11-03T00:41:30;41.20;;;22.15;;
30243;SDS011;64022;53.652;9.792;2022-11-03T00:43:55;39.00;;;21.97;;
30243;SDS011;64022;53.652;9.792;2022-11-03T00:46:21;36.30;;;20.80;;
30243;SDS011;64022;53.652;9.792;2022-11-03T00:48:48;37.45;;;20.13;;
30243;SDS011;64022;53.652;9.792;2022-11-03T00:51:14;39.73;;;20.90;;
30243;SDS011;64022;53.652;9.792;2022-11-03T00:53:43;35.88;;;21.35;;
30243;SDS011;64022;53.652;9.792;2022-11-03T00:56:17;39.22;;;20.65;;
30243;SDS011;64022;53.652;9.792;2022-11-03T00:58:44;35.95;;;19.83;;
30243;SDS011;64022;53.652;9.792;2022-11-03T01:01:11;36.38;;;19.85;;
30243;SDS011;64022;53.652;9.792;2022-11-03T01:03:39;35.95;;;20.13;;
30243;SDS011;64022;53.652;9.792;2022-11-03T01:06:07;33.42;;;19.83;;
30243;SDS011;64022;53.652;9.792;2022-11-03T01:08:52;37.30;;;20.35;;
30243;SDS011;64022;53.652;9.792;2022-11-03T01:11:18;38.17;;;20.00;;
30243;SDS011;64022;53.652;9.792;2022-11-03T01:14:05;38.55;;;20.10;;
30243;SDS011;64022;53.652;9.792;2022-11-03T01:16:31;31.10;;;18.45;;
30243;SDS011;64022;53.652;9.792;2022-11-03T01:18:57;37.23;;;20.13;;
30243;SDS011;64022;53.652;9.792;2022-11-03T01:21:22;35.23;;;19.47;;
30243;SDS011;64022;53.652;9.792;2022-11-03T01:23:48;35.07;;;20.37;;
30243;SDS011;64022;53.652;9.792;2022-11-03T01:26:14;37.60;;;19.90;;
30243;SDS011;64022;53.652;9.792;2022-11-03T01:28:41;34.88;;;19.23;;
30243;SDS011;64022;53.652;9.792;2022-11-03T01:31:09;38.85;;;19.35;;
30243;SDS011;64022;53.652;9.792;2022-11-03T01:33:37;33.88;;;19.52;;
30243;SDS011;64022;53.652;9.792;2022-11-03T01:36:03;36.10;;;19.15;;
30243;SDS011;64022;53.652;9.792;2022-11-03T01:38:32;34.53;;;18.53;;
30243;SDS011;64022;53.652;9.792;2022-11-03T01:41:00;35.35;;;18.92;;
30243;SDS011;64022;53.652;9.792;2022-11-03T01:43:27;33.78;;;18.95;;
30243;SDS011;64022;53.652;9.792;2022-11-03T01:48:48;34.72;;;19.77;;
30243;SDS011;64022;53.652;9.792;2022-11-03T01:51:23;35.15;;;19.98;;
30243;SDS011;64022;53.652;9.792;2022-11-03T01:53:52;33.75;;;19.42;;
30243;SDS011;64022;53.652;9.792;2022-11-03T01:56:20;34.47;;;18.88;;
30243;SDS011;64022;53.652;9.792;2022-11-03T01:58:47;31.58;;;17.63;;
30243;SDS011;64022;53.652;9.792;2022-11-03T02:01:14;32.00;;;18.70;;
30243;SDS011;64022;53.652;9.792;2022-11-03T02:03:41;32.58;;;19.23;;
30243;SDS011;64022;53.652;9.792;2022-11-03T02:06:11;29.50;;;17.90;;
30243;SDS011;64022;53.652;9.792;2022-11-03T02:08:43;36.50;;;17.85;;
30243;SDS011;64022;53.652;9.792;2022-11-03T02:11:15;29.85;;;17.15;;
30243;SDS011;64022;53.652;9.792;2022-11-03T02:14:00;27.05;;;17.05;;
30243;SDS011;64022;53.652;9.792;2022-11-03T02:16:25;32.50;;;18.50;;
30243;SDS011;64022;53.652;9.792;2022-11-03T02:18:54;28.73;;;17.27;;
30243;SDS011;64022;53.652;9.792;2022-11-03T02:21:25;28.38;;;18.35;;
30243;SDS011;64022;53.652;9.792;2022-11-03T02:24:09;30.95;;;18.05;;
30243;SDS011;64022;53.652;9.792;2022-11-03T02:26:56;33.38;;;18.48;;
30243;SDS011;64022;53.652;9.792;2022-11-03T02:29:21;30.50;;;17.53;;
30243;SDS011;64022;53.652;9.792;2022-11-03T02:31:48;31.60;;;18.50;;
30243;SDS011;64022;53.652;9.792;2022-11-03T02:34:26;29.92;;;17.58;;
30243;SDS011;64022;53.652;9.792;2022-11-03T02:39:34;31.88;;;17.33;;
30243;SDS011;64022;53.652;9.792;2022-11-03T02:44:31;25.98;;;15.85;;
30243;SDS011;64022;53.652;9.792;2022-11-03T02:46:58;29.80;;;17.55;;
30243;SDS011;64022;53.652;9.792;2022-11-03T02:49:27;29.58;;;16.48;;
30243;SDS011;64022;53.652;9.792;2022-11-03T02:51:59;29.53;;;17.83;;
30243;SDS011;64022;53.652;9.792;2022-11-03T02:54:27;26.23;;;16.42;;
30243;SDS011;64022;53.652;9.792;2022-11-03T02:57:04;31.63;;;17.90;;
30243;SDS011;64022;53.652;9.792;2022-11-03T02:59:36;30.17;;;17.30;;
30243;SDS011;64022;53.652;9.792;2022-11-03T03:02:10;29.45;;;16.90;;
30243;SDS011;64022;53.652;9.792;2022-11-03T03:04:40;27.42;;;16.73;;
30243;SDS011;64022;53.652;9.792;2022-11-03T03:07:21;31.77;;;17.08;;
30243;SDS011;64022;53.652;9.792;2022-11-03T03:12:25;23.83;;;15.60;;
30243;SDS011;64022;53.652;9.792;2022-11-03T03:14:52;29.50;;;16.77;;
30243;SDS011;64022;53.652;9.792;2022-11-03T03:17:23;28.58;;;16.42;;
30243;SDS011;64022;53.652;9.792;2022-11-03T03:22:54;26.85;;;15.60;;
30243;SDS011;64022;53.652;9.792;2022-11-03T03:25:27;29.92;;;15.95;;
30243;SDS011;64022;53.652;9.792;2022-11-03T03:28:01;27.10;;;15.95;;
30243;SDS011;64022;53.652;9.792;2022-11-03T03:30:32;25.67;;;15.18;;
30243;SDS011;64022;53.652;9.792;2022-11-03T03:33:00;28.02;;;15.80;;
30243;SDS011;64022;53.652;9.792;2022-11-03T03:35:27;27.52;;;15.63;;
30243;SDS011;64022;53.652;9.792;2022-11-03T03:37:56;28.95;;;16.02;;
30243;SDS011;64022;53.652;9.792;2022-11-03T03:40:27;26.83;;;14.80;;
30243;SDS011;64022;53.652;9.792;2022-11-03T03:42:56;28.90;;;15.45;;
30243;SDS011;64022;53.652;9.792;2022-11-03T03:45:22;24.20;;;14.88;;
30243;SDS011;64022;53.652;9.792;2022-11-03T03:47:49;25.90;;;14.98;;
30243;SDS011;64022;53.652;9.792;2022-11-03T03:50:15;26.03;;;15.07;;
30243;SDS011;64022;53.652;9.792;2022-11-03T03:52:41;24.00;;;14.33;;
30243;SDS011;64022;53.652;9.792;2022-11-03T03:55:11;26.70;;;14.67;;
30243;SDS011;64022;53.652;9.792;2022-11-03T03:57:41;24.50;;;14.82;;
30243;SDS011;64022;53.652;9.792;2022-11-03T04:00:08;23.55;;;13.80;;
30243;SDS011;64022;53.652;9.792;2022-11-03T04:02:36;25.77;;;14.35;;
30243;SDS011;64022;53.652;9.792;2022-11-03T04:05:02;24.13;;;13.10;;
30243;SDS011;64022;53.652;9.792;2022-11-03T04:07:27;23.40;;;13.87;;
30243;SDS011;64022;53.652;9.792;2022-11-03T04:10:11;23.35;;;13.82;;
30243;SDS011;64022;53.652;9.792;2022-11-03T04:12:39;26.07;;;14.90;;
30243;SDS011;64022;53.652;9.792;2022-11-03T04:15:24;25.10;;;13.65;;
30243;SDS011;64022;53.652;9.792;2022-11-03T04:18:08;23.25;;;13.90;;
30243;SDS011;64022;53.652;9.792;2022-11-03T04:20:52;21.75;;;12.85;;
30243;SDS011;64022;53.652;9.792;2022-11-03T04:23:36;22.25;;;13.70;;
30243;SDS011;64022;53.652;9.792;2022-11-03T04:26:02;24.30;;;13.40;;
30243;SDS011;64022;53.652;9.792;2022-11-03T04:28:30;19.92;;;12.45;;
30243;SDS011;64022;53.652;9.792;2022-11-03T04:30:56;23.60;;;13.20;;
30243;SDS011;64022;53.652;9.792;2022-11-03T04:33:23;21.83;;;13.13;;
30243;SDS011;64022;53.652;9.792;2022-11-03T04:35:48;25.53;;;13.70;;
30243;SDS011;64022;53.652;9.792;2022-11-03T04:38:22;22.73;;;12.57;;
30243;SDS011;64022;53.652;9.792;2022-11-03T04:40:52;22.10;;;12.82;;
30243;SDS011;64022;53.652;9.792;2022-11-03T04:43:19;22.90;;;13.02;;
30243;SDS011;64022;53.652;9.792;2022-11-03T04:45:47;22.00;;;13.13;;
30243;SDS011;64022;53.652;9.792;2022-11-03T04:48:14;21.50;;;12.30;;
30243;SDS011;64022;53.652;9.792;2022-11-03T04:50:44;21.05;;;13.50;;
30243;SDS011;64022;53.652;9.792;2022-11-03T04:53:15;19.77;;;12.40;;
30243;SDS011;64022;53.652;9.792;2022-11-03T04:55:42;20.10;;;12.15;;
30243;SDS011;64022;53.652;9.792;2022-11-03T04:58:21;21.92;;;12.43;;
30243;SDS011;64022;53.652;9.792;2022-11-03T05:00:51;22.08;;;11.95;;
30243;SDS011;64022;53.652;9.792;2022-11-03T05:03:21;19.10;;;12.82;;
30243;SDS011;64022;53.652;9.792;2022-11-03T05:05:49;18.20;;;10.82;;
30243;SDS011;64022;53.652;9.792;2022-11-03T05:08:16;20.48;;;12.07;;
30243;SDS011;64022;53.652;9.792;2022-11-03T05:10:43;16.95;;;11.70;;
30243;SDS011;64022;53.652;9.792;2022-11-03T05:15:44;18.65;;;11.77;;
30243;SDS011;64022;53.652;9.792;2022-11-03T05:18:12;19.67;;;11.30;;
30243;SDS011;64022;53.652;9.792;2022-11-03T05:20:47;19.67;;;12.45;;
30243;SDS011;64022;53.652;9.792;2022-11-03T05:23:18;17.70;;;11.20;;
30243;SDS011;64022;53.652;9.792;2022-11-03T05:25:46;17.55;;;10.95;;
30243;SDS011;64022;53.652;9.792;2022-11-03T05:28:21;22.83;;;12.40;;
30243;SDS011;64022;53.652;9.792;2022-11-03T05:30:50;22.50;;;11.65;;
30243;SDS011;64022;53.652;9.792;2022-11-03T05:33:21;18.15;;;10.90;;
30243;SDS011;64022;53.652;9.792;2022-11-03T05:35:50;16.50;;;10.88;;
30243;SDS011;64022;53.652;9.792;2022-11-03T05:38:17;20.60;;;11.93;;
30243;SDS011;64022;53.652;9.792;2022-11-03T05:40:44;16.08;;;10.27;;
30243;SDS011;64022;53.652;9.792;2022-11-03T05:43:13;16.17;;;10.05;;
30243;SDS011;64022;53.652;9.792;2022-11-03T05:45:39;18.05;;;10.60;;
30243;SDS011;64022;53.652;9.792;2022-11-03T05:48:10;18.15;;;10.43;;
30243;SDS011;64022;53.652;9.792;2022-11-03T05:50:56;16.05;;;10.55;;
30243;SDS011;64022;53.652;9.792;2022-11-03T05:53:26;16.88;;;9.98;;
30243;SDS011;64022;53.652;9.792;2022-11-03T05:55:57;17.75;;;9.50;;
30243;SDS011;64022;53.652;9.792;2022-11-03T05:58:26;17.23;;;10.25;;
30243;SDS011;64022;53.652;9.792;2022-11-03T06:01:03;16.83;;;9.45;;
30243;SDS011;64022;53.652;9.792;2022-11-03T06:03:55;14.00;;;9.43;;
30243;SDS011;64022;53.652;9.792;2022-11-03T06:06:34;13.50;;;9.25;;
30243;SDS011;64022;53.652;9.792;2022-11-03T06:09:02;15.40;;;9.60;;
30243;SDS011;64022;53.652;9.792;2022-11-03T06:11:37;17.27;;;9.68;;
30243;SDS011;64022;53.652;9.792;2022-11-03T06:17:09;17.85;;;9.98;;
30243;SDS011;64022;53.652;9.792;2022-11-03T06:19:47;15.15;;;9.65;;
30243;SDS011;64022;53.652;9.792;2022-11-03T06:22:18;14.77;;;9.85;;
30243;SDS011;64022;53.652;9.792;2022-11-03T06:24:48;15.60;;;9.30;;
30243;SDS011;64022;53.652;9.792;2022-11-03T06:27:15;13.45;;;8.90;;
30243;SDS011;64022;53.652;9.792;2022-11-03T06:29:47;14.55;;;9.32;;
30243;SDS011;64022;53.652;9.792;2022-11-03T06:32:16;14.43;;;9.15;;
30243;SDS011;64022;53.652;9.792;2022-11-03T06:34:43;14.30;;;8.95;;
30243;SDS011;64022;53.652;9.792;2022-11-03T06:39:47;15.82;;;9.48;;
30243;SDS011;64022;53.652;9.792;2022-11-03T06:42:14;12.40;;;8.38;;
30243;SDS011;64022;53.652;9.792;2022-11-03T06:44:47;14.95;;;8.50;;
30243;SDS011;64022;53.652;9.792;2022-11-03T06:47:24;15.18;;;8.70;;
30243;SDS011;64022;53.652;9.792;2022-11-03T06:49:55;16.95;;;9.07;;
30243;SDS011;64022;53.652;9.792;2022-11-03T06:52:27;15.05;;;8.98;;
30243;SDS011;64022;53.652;9.792;2022-11-03T06:57:43;11.80;;;7.93;;
30243;SDS011;64022;53.652;9.792;2022-11-03T07:00:21;12.90;;;8.40;;
30243;SDS011;64022;53.652;9.792;2022-11-03T07:05:32;13.80;;;7.97;;
30243;SDS011;64022;53.652;9.792;2022-11-03T07:07:59;14.57;;;8.63;;
30243;SDS011;64022;53.652;9.792;2022-11-03T07:10:49;13.30;;;8.63;;
30243;SDS011;64022;53.652;9.792;2022-11-03T07:13:22;16.10;;;9.27;;
30243;SDS011;64022;53.652;9.792;2022-11-03T07:15:49;15.23;;;9.30;;
30243;SDS011;64022;53.652;9.792;2022-11-03T07:18:26;13.07;;;8.55;;
30243;SDS011;64022;53.652;9.792;2022-11-03T07:20:52;14.80;;;9.07;;
30243;SDS011;64022;53.652;9.792;2022-11-03T07:25:48;14.25;;;8.30;;
30243;SDS011;64022;53.652;9.792;2022-11-03T07:28:19;13.85;;;8.70;;
30243;SDS011;64022;53.652;9.792;2022-11-03T07:30:46;13.93;;;8.77;;
30243;SDS011;64022;53.652;9.792;2022-11-03T07:33:16;12.20;;;8.23;;
30243;SDS011;64022;53.652;9.792;2022-11-03T07:35:45;13.55;;;8.40;;
30243;SDS011;64022;53.652;9.792;2022-11-03T07:38:16;15.15;;;8.82;;
30243;SDS011;64022;53.652;9.792;2022-11-03T07:40:45;12.52;;;8.52;;
30243;SDS011;64022;53.652;9.792;2022-11-03T07:43:15;12.77;;;8.30;;
30243;SDS011;64022;53.652;9.792;2022-11-03T07:45:47;14.18;;;8.77;;
30243;SDS011;64022;53.652;9.792;2022-11-03T07:48:19;14.20;;;9.07;;
30243;SDS011;64022;53.652;9.792;2022-11-03T07:51:14;12.57;;;8.25;;
30243;SDS011;64022;53.652;9.792;2022-11-03T07:53:47;14.40;;;9.05;;
30243;SDS011;64022;53.652;9.792;2022-11-03T07:58:44;14.20;;;8.75;;
30243;SDS011;64022;53.652;9.792;2022-11-03T08:01:24;13.90;;;8.55;;
30243;SDS011;64022;53.652;9.792;2022-11-03T08:04:03;13.80;;;8.52;;
30243;SDS011;64022;53.652;9.792;2022-11-03T08:06:32;12.70;;;8.38;;
30243;SDS011;64022;53.652;9.792;2022-11-03T08:08:57;14.07;;;8.60;;
30243;SDS011;64022;53.652;9.792;2022-11-03T08:11:23;12.87;;;8.33;;
30243;SDS011;64022;53.652;9.792;2022-11-03T08:13:49;11.83;;;8.43;;
30243;SDS011;64022;53.652;9.792;2022-11-03T08:16:16;15.32;;;8.40;;
30243;SDS011;64022;53.652;9.792;2022-11-03T08:18:41;12.97;;;8.00;;
30243;SDS011;64022;53.652;9.792;2022-11-03T08:21:07;13.60;;;8.33;;
30243;SDS011;64022;53.652;9.792;2022-11-03T08:23:32;12.97;;;8.17;;
30243;SDS011;64022;53.652;9.792;2022-11-03T08:25:58;10.40;;;7.57;;
30243;SDS011;64022;53.652;9.792;2022-11-03T08:28:24;14.77;;;9.33;;
30243;SDS011;64022;53.652;9.792;2022-11-03T08:30:49;11.70;;;7.30;;
30243;SDS011;64022;53.652;9.792;2022-11-03T08:33:15;11.43;;;7.63;;
30243;SDS011;64022;53.652;9.792;2022-11-03T08:35:40;12.43;;;8.00;;
30243;SDS011;64022;53.652;9.792;2022-11-03T08:38:06;15.37;;;7.93;;
30243;SDS011;64022;53.652;9.792;2022-11-03T08:40:31;13.27;;;8.20;;
30243;SDS011;64022;53.652;9.792;2022-11-03T08:42:57;11.33;;;7.77;;
30243;SDS011;64022;53.652;9.792;2022-11-03T08:47:49;11.65;;;7.85;;
30243;SDS011;64022;53.652;9.792;2022-11-03T08:50:15;11.67;;;7.50;;
30243;SDS011;64022;53.652;9.792;2022-11-03T08:52:40;12.87;;;8.20;;
30243;SDS011;64022;53.652;9.792;2022-11-03T08:55:07;12.88;;;7.75;;
30243;SDS011;64022;53.652;9.792;2022-11-03T08:57:33;12.00;;;7.32;;
30243;SDS011;64022;53.652;9.792;2022-11-03T08:59:59;12.70;;;7.87;;
30243;SDS011;64022;53.652;9.792;2022-11-03T09:02:24;13.20;;;8.10;;
30243;SDS011;64022;53.652;9.792;2022-11-03T09:04:50;11.97;;;7.63;;
30243;SDS011;64022;53.652;9.792;2022-11-03T09:07:15;11.50;;;7.60;;
30243;SDS011;64022;53.652;9.792;2022-11-03T09:09:41;13.27;;;7.37;;
30243;SDS011;64022;53.652;9.792;2022-11-03T09:12:06;12.07;;;7.53;;
30243;SDS011;64022;53.652;9.792;2022-11-03T09:14:32;11.60;;;7.70;;
30243;SDS011;64022;53.652;9.792;2022-11-03T09:16:57;14.47;;;7.53;;
30243;SDS011;64022;53.652;9.792;2022-11-03T09:19:23;11.30;;;7.33;;
30243;SDS011;64022;53.652;9.792;2022-11-03T09:21:48;10.73;;;7.47;;
30243;SDS011;64022;53.652;9.792;2022-11-03T09:24:16;12.18;;;8.23;;
30243;SDS011;64022;53.652;9.792;2022-11-03T09:26:41;12.00;;;7.70;;
30243;SDS011;64022;53.652;9.792;2022-11-03T09:29:08;11.90;;;7.80;;
30243;SDS011;64022;53.652;9.792;2022-11-03T09:31:33;13.73;;;9.03;;
30243;SDS011;64022;53.652;9.792;2022-11-03T09:33:59;12.73;;;8.50;;
30243;SDS011;64022;53.652;9.792;2022-11-03T09:36:24;12.47;;;7.93;;
30243;SDS011;64022;53.652;9.792;2022-11-03T09:38:50;12.50;;;8.47;;
30243;SDS011;64022;53.652;9.792;2022-11-03T09:41:15;13.63;;;8.73;;
30243;SDS011;64022;53.652;9.792;2022-11-03T09:43:44;12.07;;;8.60;;
30243;SDS011;64022;53.652;9.792;2022-11-03T09:46:10;13.40;;;8.95;;
30243;SDS011;64022;53.652;9.792;2022-11-03T09:48:36;12.55;;;9.05;;
30243;SDS011;64022;53.652;9.792;2022-11-03T09:51:02;14.02;;;8.90;;
30243;SDS011;64022;53.652;9.792;2022-11-03T09:53:28;14.33;;;9.57;;
30243;SDS011;64022;53.652;9.792;2022-11-03T09:55:54;15.35;;;10.13;;
30243;SDS011;64022;53.652;9.792;2022-11-03T09:58:20;14.27;;;9.23;;
30243;SDS011;64022;53.652;9.792;2022-11-03T10:00:46;17.87;;;10.87;;
30243;SDS011;64022;53.652;9.792;2022-11-03T10:03:12;16.00;;;10.40;;
30243;SDS011;64022;53.652;9.792;2022-11-03T10:05:41;14.15;;;9.82;;
30243;SDS011;64022;53.652;9.792;2022-11-03T10:08:22;14.45;;;9.85;;
30243;SDS011;64022;53.652;9.792;2022-11-03T10:10:53;15.20;;;10.90;;
30243;SDS011;64022;53.652;9.792;2022-11-03T10:13:25;14.32;;;10.30;;
30243;SDS011;64022;53.652;9.792;2022-11-03T10:15:54;17.77;;;11.63;;
30243;SDS011;64022;53.652;9.792;2022-11-03T10:18:21;17.90;;;11.82;;
30243;SDS011;64022;53.652;9.792;2022-11-03T10:20:47;15.20;;;11.07;;
30243;SDS011;64022;53.652;9.792;2022-11-03T10:23:13;18.40;;;11.60;;
30243;SDS011;64022;53.652;9.792;2022-11-03T10:25:39;17.87;;;12.20;;
30243;SDS011;64022;53.652;9.792;2022-11-03T10:28:20;16.02;;;11.68;;
30243;SDS011;64022;53.652;9.792;2022-11-03T10:33:26;18.80;;;13.00;;
30243;SDS011;64022;53.652;9.792;2022-11-03T10:35:53;19.60;;;12.88;;
30243;SDS011;64022;53.652;9.792;2022-11-03T10:38:23;20.65;;;13.70;;
30243;SDS011;64022;53.652;9.792;2022-11-03T10:40:52;24.08;;;14.18;;
30243;SDS011;64022;53.652;9.792;2022-11-03T10:43:18;22.33;;;13.98;;
30243;SDS011;64022;53.652;9.792;2022-11-03T10:45:44;20.97;;;13.87;;
30243;SDS011;64022;53.652;9.792;2022-11-03T10:48:10;20.40;;;14.83;;
30243;SDS011;64022;53.652;9.792;2022-11-03T10:50:37;22.87;;;15.13;;
30243;SDS011;64022;53.652;9.792;2022-11-03T10:53:04;23.00;;;15.55;;
30243;SDS011;64022;53.652;9.792;2022-11-03T10:55:36;22.85;;;15.90;;
30243;SDS011;64022;53.652;9.792;2022-11-03T10:58:03;22.80;;;16.70;;
30243;SDS011;64022;53.652;9.792;2022-11-03T11:00:30;25.15;;;16.92;;
30243;SDS011;64022;53.652;9.792;2022-11-03T11:02:58;22.20;;;15.90;;
30243;SDS011;64022;53.652;9.792;2022-11-03T11:05:24;24.80;;;17.27;;
30243;SDS011;64022;53.652;9.792;2022-11-03T11:07:50;24.57;;;16.07;;
30243;SDS011;64022;53.652;9.792;2022-11-03T11:10:21;23.98;;;16.55;;
30243;SDS011;64022;53.652;9.792;2022-11-03T11:15:58;23.50;;;16.73;;
30243;SDS011;64022;53.652;9.792;2022-11-03T11:20:59;25.83;;;17.33;;
30243;SDS011;64022;53.652;9.792;2022-11-03T11:23:46;25.23;;;18.27;;
30243;SDS011;64022;53.652;9.792;2022-11-03T11:26:13;27.30;;;19.00;;
30243;SDS011;64022;53.652;9.792;2022-11-03T11:28:41;28.23;;;18.08;;
30243;SDS011;64022;53.652;9.792;2022-11-03T11:31:26;27.38;;;18.33;;
30243;SDS011;64022;53.652;9.792;2022-11-03T11:36:44;24.95;;;18.52;;
30243;SDS011;64022;53.652;9.792;2022-11-03T11:42:11;28.77;;;20.10;;
30243;SDS011;64022;53.652;9.792;2022-11-03T11:52:30;27.55;;;19.17;;
30243;SDS011;64022;53.652;9.792;2022-11-03T11:55:03;26.40;;;19.23;;
30243;SDS011;64022;53.652;9.792;2022-11-03T11:57:29;26.85;;;19.50;;
30243;SDS011;64022;53.652;9.792;2022-11-03T11:59:58;31.02;;;19.27;;
30243;SDS011;64022;53.652;9.792;2022-11-03T12:02:26;31.17;;;20.67;;
30243;SDS011;64022;53.652;9.792;2022-11-03T12:04:56;28.50;;;20.50;;
30243;SDS011;64022;53.652;9.792;2022-11-03T12:07:31;33.17;;;21.77;;
30243;SDS011;64022;53.652;9.792;2022-11-03T12:10:33;29.55;;;20.02;;
30243;SDS011;64022;53.652;9.792;2022-11-03T12:12:53;28.58;;;20.00;;
30243;SDS011;64022;53.652;9.792;2022-11-03T12:20:58;30.42;;;20.40;;
30243;SDS011;64022;53.652;9.792;2022-11-03T12:23:30;28.40;;;21.52;;
30243;SDS011;64022;53.652;9.792;2022-11-03T12:26:01;28.92;;;20.35;;
30243;SDS011;64022;53.652;9.792;2022-11-03T12:28:34;31.67;;;22.10;;
30243;SDS011;64022;53.652;9.792;2022-11-03T12:31:01;28.23;;;20.65;;
30243;SDS011;64022;53.652;9.792;2022-11-03T12:33:27;30.58;;;20.92;;
30243;SDS011;64022;53.652;9.792;2022-11-03T12:35:54;32.43;;;21.93;;
30243;SDS011;64022;53.652;9.792;2022-11-03T12:38:20;33.45;;;21.75;;
30243;SDS011;64022;53.652;9.792;2022-11-03T12:40:45;31.00;;;20.80;;
30243;SDS011;64022;53.652;9.792;2022-11-03T12:43:11;31.53;;;20.37;;
30243;SDS011;64022;53.652;9.792;2022-11-03T12:45:36;32.67;;;21.40;;
30243;SDS011;64022;53.652;9.792;2022-11-03T12:48:02;28.13;;;20.63;;
30243;SDS011;64022;53.652;9.792;2022-11-03T12:50:28;30.33;;;20.95;;
30243;SDS011;64022;53.652;9.792;2022-11-03T12:52:54;28.83;;;20.70;;
30243;SDS011;64022;53.652;9.792;2022-11-03T12:55:19;32.13;;;20.70;;
30243;SDS011;64022;53.652;9.792;2022-11-03T12:57:45;28.73;;;20.23;;
30243;SDS011;64022;53.652;9.792;2022-11-03T13:00:11;33.07;;;22.47;;
30243;SDS011;64022;53.652;9.792;2022-11-03T13:02:37;29.50;;;21.40;;
30243;SDS011;64022;53.652;9.792;2022-11-03T13:05:04;31.92;;;21.10;;
30243;SDS011;64022;53.652;9.792;2022-11-03T13:07:29;29.20;;;20.45;;
30243;SDS011;64022;53.652;9.792;2022-11-03T13:09:55;31.00;;;21.33;;
30243;SDS011;64022;53.652;9.792;2022-11-03T13:12:20;30.33;;;21.03;;
30243;SDS011;64022;53.652;9.792;2022-11-03T13:14:56;30.27;;;20.92;;
30243;SDS011;64022;53.652;9.792;2022-11-03T13:17:22;29.27;;;21.02;;
30243;SDS011;64022;53.652;9.792;2022-11-03T13:19:48;32.63;;;21.63;;
30243;SDS011;64022;53.652;9.792;2022-11-03T13:22:13;29.33;;;21.83;;
30243;SDS011;64022;53.652;9.792;2022-11-03T13:24:39;29.30;;;21.13;;
30243;SDS011;64022;53.652;9.792;2022-11-03T13:27:04;30.63;;;21.07;;
30243;SDS011;64022;53.652;9.792;2022-11-03T13:29:30;30.30;;;20.67;;
30243;SDS011;64022;53.652;9.792;2022-11-03T13:31:55;30.53;;;20.87;;
30243;SDS011;64022;53.652;9.792;2022-11-03T13:34:21;30.07;;;21.67;;
30243;SDS011;64022;53.652;9.792;2022-11-03T13:36:46;28.27;;;20.47;;
30243;SDS011;64022;53.652;9.792;2022-11-03T13:39:12;29.17;;;20.50;;
30243;SDS011;64022;53.652;9.792;2022-11-03T13:41:37;31.87;;;22.03;;
30243;SDS011;64022;53.652;9.792;2022-11-03T13:44:03;30.77;;;20.63;;
30243;SDS011;64022;53.652;9.792;2022-11-03T13:46:28;30.73;;;20.83;;
30243;SDS011;64022;53.652;9.792;2022-11-03T13:48:54;30.67;;;21.27;;
30243;SDS011;64022;53.652;9.792;2022-11-03T13:51:19;31.67;;;21.33;;
30243;SDS011;64022;53.652;9.792;2022-11-03T13:53:45;32.63;;;22.17;;
30243;SDS011;64022;53.652;9.792;2022-11-03T13:56:11;32.55;;;21.58;;
30243;SDS011;64022;53.652;9.792;2022-11-03T13:58:37;32.47;;;21.43;;
30243;SDS011;64022;53.652;9.792;2022-11-03T14:01:03;31.90;;;21.17;;
30243;SDS011;64022;53.652;9.792;2022-11-03T14:03:28;29.27;;;20.37;;
30243;SDS011;64022;53.652;9.792;2022-11-03T14:05:54;28.93;;;21.20;;
30243;SDS011;64022;53.652;9.792;2022-11-03T14:08:20;29.63;;;21.53;;
30243;SDS011;64022;53.652;9.792;2022-11-03T14:10:45;29.23;;;21.07;;
30243;SDS011;64022;53.652;9.792;2022-11-03T14:13:11;29.63;;;20.73;;
30243;SDS011;64022;53.652;9.792;2022-11-03T14:15:36;31.00;;;22.10;;
30243;SDS011;64022;53.652;9.792;2022-11-03T14:18:02;28.63;;;20.87;;
30243;SDS011;64022;53.652;9.792;2022-11-03T14:20:27;34.40;;;22.00;;
30243;SDS011;64022;53.652;9.792;2022-11-03T14:22:53;32.00;;;22.00;;
30243;SDS011;64022;53.652;9.792;2022-11-03T14:25:18;31.77;;;22.50;;
30243;SDS011;64022;53.652;9.792;2022-11-03T14:27:44;31.80;;;22.57;;
30243;SDS011;64022;53.652;9.792;2022-11-03T14:30:11;31.80;;;21.23;;
30243;SDS011;64022;53.652;9.792;2022-11-03T14:32:37;32.45;;;22.10;;
30243;SDS011;64022;53.652;9.792;2022-11-03T14:35:02;33.40;;;22.17;;
30243;SDS011;64022;53.652;9.792;2022-11-03T14:37:29;33.47;;;23.33;;
30243;SDS011;64022;53.652;9.792;2022-11-03T14:39:54;31.97;;;22.43;;
30243;SDS011;64022;53.652;9.792;2022-11-03T14:42:20;30.63;;;22.33;;
30243;SDS011;64022;53.652;9.792;2022-11-03T14:44:45;34.57;;;22.57;;
30243;SDS011;64022;53.652;9.792;2022-11-03T14:47:15;33.50;;;23.33;;
30243;SDS011;64022;53.652;9.792;2022-11-03T14:49:41;30.52;;;21.65;;
30243;SDS011;64022;53.652;9.792;2022-11-03T14:52:07;32.30;;;22.77;;
30243;SDS011;64022;53.652;9.792;2022-11-03T14:54:33;30.17;;;21.60;;
30243;SDS011;64022;53.652;9.792;2022-11-03T14:59:25;31.95;;;22.85;;
30243;SDS011;64022;53.652;9.792;2022-11-03T15:01:51;34.60;;;23.13;;
30243;SDS011;64022;53.652;9.792;2022-11-03T15:04:17;34.30;;;23.80;;
30243;SDS011;64022;53.652;9.792;2022-11-03T15:06:43;36.33;;;24.83;;
30243;SDS011;64022;53.652;9.792;2022-11-03T15:09:09;34.27;;;24.90;;
30243;SDS011;64022;53.652;9.792;2022-11-03T15:11:38;35.15;;;24.70;;
30243;SDS011;64022;53.652;9.792;2022-11-03T15:14:04;33.97;;;24.77;;
30243;SDS011;64022;53.652;9.792;2022-11-03T15:16:30;35.90;;;25.50;;
30243;SDS011;64022;53.652;9.792;2022-11-03T15:18:56;32.72;;;24.65;;
30243;SDS011;64022;53.652;9.792;2022-11-03T15:21:23;35.22;;;25.15;;
30243;SDS011;64022;53.652;9.792;2022-11-03T15:23:48;35.57;;;25.20;;
30243;SDS011;64022;53.652;9.792;2022-11-03T15:26:14;39.20;;;26.57;;
30243;SDS011;64022;53.652;9.792;2022-11-03T15:28:39;40.50;;;26.40;;
30243;SDS011;64022;53.652;9.792;2022-11-03T15:31:06;35.42;;;24.23;;
30243;SDS011;64022;53.652;9.792;2022-11-03T15:33:32;40.97;;;25.83;;
30243;SDS011;64022;53.652;9.792;2022-11-03T15:35:58;32.37;;;24.00;;
30243;SDS011;64022;53.652;9.792;2022-11-03T15:38:24;34.80;;;23.23;;
30243;SDS011;64022;53.652;9.792;2022-11-03T15:40:49;35.07;;;24.03;;